sensor_id;sensor_type;location;lat;lon;timestamp;pressure;altitude;pressure_sealevel;temperature;humidity
70458;BME280;57919;56.194;95.716;2023-09-19T00:00:49;99501.19;;;7.34;81.32
70458;BME280;57919;56.194;95.716;2023-09-19T00:10:54;99508.59;;;7.56;81.15
70458;BME280;57919;56.194;95.716;2023-09-19T00:20:59;99508.19;;;7.99;80.93
70458;BME280;57919;56.194;95.716;2023-09-19T00:31:01;99497.88;;;8.53;79.71
70458;BME280;57919;56.194;95.716;2023-09-19T00:41:03;99498.94;;;9.10;78.60
70458;BME280;57919;56.194;95.716;2023-09-19T00:51:05;99502.16;;;9.37;78.32
70458;BME280;57919;56.194;95.716;2023-09-19T01:01:08;99520.00;;;9.84;79.02
70458;BME280;57919;56.194;95.716;2023-09-19T01:11:28;99508.41;;;10.70;75.93
70458;BME280;57919;56.194;95.716;2023-09-19T01:31:51;99501.06;;;12.36;72.05
70458;BME280;57919;56.194;95.716;2023-09-19T01:42:15;99509.41;;;13.31;69.72
70458;BME280;57919;56.194;95.716;2023-09-19T01:52:21;99522.09;;;13.96;67.57
70458;BME280;57919;56.194;95.716;2023-09-19T02:02:29;99518.91;;;15.18;64.92
70458;BME280;57919;56.194;95.716;2023-09-19T02:12:32;99522.22;;;16.84;61.84
70458;BME280;57919;56.194;95.716;2023-09-19T02:22:38;99529.75;;;17.88;59.70
70458;BME280;57919;56.194;95.716;2023-09-19T02:33:00;99527.94;;;18.58;57.40
70458;BME280;57919;56.194;95.716;2023-09-19T02:43:07;99535.09;;;18.76;54.98
70458;BME280;57919;56.194;95.716;2023-09-19T02:53:10;99520.22;;;18.70;55.48
70458;BME280;57919;56.194;95.716;2023-09-19T03:03:15;99509.88;;;19.49;54.30
70458;BME280;57919;56.194;95.716;2023-09-19T03:13:20;99505.13;;;20.54;52.32
70458;BME280;57919;56.194;95.716;2023-09-19T03:23:23;99505.59;;;21.79;50.47
70458;BME280;57919;56.194;95.716;2023-09-19T03:33:25;99486.50;;;21.49;49.73
70458;BME280;57919;56.194;95.716;2023-09-19T03:43:28;99479.31;;;21.27;50.28
70458;BME280;57919;56.194;95.716;2023-09-19T03:53:31;99470.91;;;22.73;47.50
70458;BME280;57919;56.194;95.716;2023-09-19T04:03:36;99461.03;;;22.99;46.99
70458;BME280;57919;56.194;95.716;2023-09-19T04:13:52;99456.44;;;23.59;46.54
70458;BME280;57919;56.194;95.716;2023-09-19T04:23:54;99456.53;;;24.74;44.23
70458;BME280;57919;56.194;95.716;2023-09-19T04:33:56;99457.47;;;25.31;43.33
70458;BME280;57919;56.194;95.716;2023-09-19T04:43:59;99460.03;;;24.95;41.96
70458;BME280;57919;56.194;95.716;2023-09-19T04:54:01;99448.31;;;24.61;42.59
70458;BME280;57919;56.194;95.716;2023-09-19T05:04:04;99449.09;;;24.30;43.73
70458;BME280;57919;56.194;95.716;2023-09-19T05:14:06;99432.09;;;24.27;42.67
70458;BME280;57919;56.194;95.716;2023-09-19T05:24:08;99421.97;;;24.52;42.30
70458;BME280;57919;56.194;95.716;2023-09-19T05:34:10;99419.38;;;25.77;40.54
70458;BME280;57919;56.194;95.716;2023-09-19T05:44:13;99419.59;;;26.36;38.74
70458;BME280;57919;56.194;95.716;2023-09-19T05:54:16;99416.88;;;26.48;37.98
70458;BME280;57919;56.194;95.716;2023-09-19T06:04:19;99408.38;;;25.88;37.80
70458;BME280;57919;56.194;95.716;2023-09-19T06:14:22;99398.38;;;24.50;38.29
70458;BME280;57919;56.194;95.716;2023-09-19T06:24:26;99395.84;;;23.77;39.63
70458;BME280;57919;56.194;95.716;2023-09-19T06:34:27;99391.41;;;23.03;40.47
70458;BME280;57919;56.194;95.716;2023-09-19T06:44:29;99387.88;;;22.42;41.65
70458;BME280;57919;56.194;95.716;2023-09-19T06:54:33;99384.28;;;22.00;41.89
70458;BME280;57919;56.194;95.716;2023-09-19T07:04:35;99358.91;;;22.05;42.57
70458;BME280;57919;56.194;95.716;2023-09-19T07:14:37;99356.94;;;22.60;41.51
70458;BME280;57919;56.194;95.716;2023-09-19T07:24:39;99349.38;;;22.95;40.84
70458;BME280;57919;56.194;95.716;2023-09-19T07:34:41;99340.03;;;22.96;41.17
70458;BME280;57919;56.194;95.716;2023-09-19T07:44:44;99340.63;;;22.71;41.09
70458;BME280;57919;56.194;95.716;2023-09-19T07:54:48;99332.88;;;22.14;41.87
70458;BME280;57919;56.194;95.716;2023-09-19T08:04:51;99329.97;;;21.81;42.12
70458;BME280;57919;56.194;95.716;2023-09-19T08:14:54;99331.25;;;21.85;42.48
70458;BME280;57919;56.194;95.716;2023-09-19T08:24:56;99320.59;;;21.75;42.93
70458;BME280;57919;56.194;95.716;2023-09-19T08:34:58;99322.13;;;21.43;43.65
70458;BME280;57919;56.194;95.716;2023-09-19T08:45:01;99317.03;;;21.12;44.46
70458;BME280;57919;56.194;95.716;2023-09-19T08:55:06;99310.97;;;21.51;43.81
70458;BME280;57919;56.194;95.716;2023-09-19T09:05:11;99302.22;;;21.41;43.94
70458;BME280;57919;56.194;95.716;2023-09-19T09:15:14;99301.97;;;21.36;43.46
70458;BME280;57919;56.194;95.716;2023-09-19T09:25:18;99303.44;;;21.04;43.48
70458;BME280;57919;56.194;95.716;2023-09-19T09:35:20;99291.13;;;20.72;43.62
70458;BME280;57919;56.194;95.716;2023-09-19T09:45:24;99293.03;;;20.50;43.58
70458;BME280;57919;56.194;95.716;2023-09-19T09:55:57;99289.59;;;20.27;43.21
70458;BME280;57919;56.194;95.716;2023-09-19T10:06:00;99284.56;;;20.09;44.66
70458;BME280;57919;56.194;95.716;2023-09-19T10:16:13;99286.94;;;19.61;46.40
70458;BME280;57919;56.194;95.716;2023-09-19T10:26:20;99286.28;;;19.45;46.98
70458;BME280;57919;56.194;95.716;2023-09-19T10:36:26;99278.69;;;19.47;47.19
70458;BME280;57919;56.194;95.716;2023-09-19T10:46:32;99282.50;;;19.31;47.51
70458;BME280;57919;56.194;95.716;2023-09-19T10:56:38;99284.94;;;19.41;47.42
70458;BME280;57919;56.194;95.716;2023-09-19T11:07:08;99280.31;;;19.12;48.18
70458;BME280;57919;56.194;95.716;2023-09-19T11:27:25;99301.03;;;18.16;51.93
70458;BME280;57919;56.194;95.716;2023-09-19T11:47:34;99290.06;;;17.07;53.49
70458;BME280;57919;56.194;95.716;2023-09-19T11:57:37;99301.94;;;16.67;54.43
70458;BME280;57919;56.194;95.716;2023-09-19T12:07:44;99286.53;;;16.09;55.74
70458;BME280;57919;56.194;95.716;2023-09-19T12:17:49;99296.66;;;15.66;56.61
70458;BME280;57919;56.194;95.716;2023-09-19T12:27:52;99312.13;;;15.24;57.55
70458;BME280;57919;56.194;95.716;2023-09-19T12:37:57;99309.34;;;14.81;58.59
70458;BME280;57919;56.194;95.716;2023-09-19T12:58:23;99327.75;;;14.08;60.75
70458;BME280;57919;56.194;95.716;2023-09-19T13:08:28;99339.00;;;13.78;61.62
70458;BME280;57919;56.194;95.716;2023-09-19T13:18:32;99332.47;;;13.43;62.65
70458;BME280;57919;56.194;95.716;2023-09-19T13:28:44;99326.56;;;13.20;63.07
70458;BME280;57919;56.194;95.716;2023-09-19T13:38:46;99345.91;;;12.98;63.83
70458;BME280;57919;56.194;95.716;2023-09-19T13:48:50;99359.25;;;12.72;64.66
70458;BME280;57919;56.194;95.716;2023-09-19T13:58:56;99363.28;;;12.49;65.35
70458;BME280;57919;56.194;95.716;2023-09-19T14:08:58;99372.41;;;12.19;65.89
70458;BME280;57919;56.194;95.716;2023-09-19T14:19:02;99373.53;;;11.97;66.25
70458;BME280;57919;56.194;95.716;2023-09-19T14:29:05;99382.16;;;11.72;66.62
70458;BME280;57919;56.194;95.716;2023-09-19T14:39:11;99383.22;;;11.50;67.30
70458;BME280;57919;56.194;95.716;2023-09-19T14:49:14;99388.56;;;11.30;67.82
70458;BME280;57919;56.194;95.716;2023-09-19T14:59:18;99393.34;;;11.17;68.51
70458;BME280;57919;56.194;95.716;2023-09-19T15:09:22;99401.81;;;11.03;68.96
70458;BME280;57919;56.194;95.716;2023-09-19T15:19:28;99398.00;;;10.85;69.27
70458;BME280;57919;56.194;95.716;2023-09-19T15:29:30;99406.72;;;10.67;69.49
70458;BME280;57919;56.194;95.716;2023-09-19T15:39:32;99426.19;;;10.29;70.62
70458;BME280;57919;56.194;95.716;2023-09-19T15:49:38;99423.81;;;9.93;70.92
70458;BME280;57919;56.194;95.716;2023-09-19T15:59:40;99415.84;;;9.80;70.99
70458;BME280;57919;56.194;95.716;2023-09-19T16:09:42;99426.31;;;9.74;71.27
70458;BME280;57919;56.194;95.716;2023-09-19T16:19:44;99422.75;;;9.62;71.22
70458;BME280;57919;56.194;95.716;2023-09-19T16:29:46;99415.66;;;9.38;71.20
70458;BME280;57919;56.194;95.716;2023-09-19T16:39:49;99421.78;;;9.29;71.65
70458;BME280;57919;56.194;95.716;2023-09-19T16:49:51;99411.22;;;9.15;72.16
70458;BME280;57919;56.194;95.716;2023-09-19T16:59:54;99398.69;;;9.03;72.26
70458;BME280;57919;56.194;95.716;2023-09-19T17:09:57;99406.41;;;8.85;72.34
70458;BME280;57919;56.194;95.716;2023-09-19T17:19:59;99391.19;;;8.73;72.72
70458;BME280;57919;56.194;95.716;2023-09-19T17:30:01;99394.56;;;8.53;72.80
70458;BME280;57919;56.194;95.716;2023-09-19T17:40:08;99391.34;;;8.48;73.02
70458;BME280;57919;56.194;95.716;2023-09-19T17:50:12;99395.72;;;8.37;73.33
70458;BME280;57919;56.194;95.716;2023-09-19T18:00:14;99384.38;;;8.21;73.53
70458;BME280;57919;56.194;95.716;2023-09-19T18:10:16;99380.31;;;8.16;73.34
70458;BME280;57919;56.194;95.716;2023-09-19T18:20:18;99373.53;;;8.10;73.67
70458;BME280;57919;56.194;95.716;2023-09-19T18:30:20;99368.66;;;8.15;73.53
70458;BME280;57919;56.194;95.716;2023-09-19T18:40:22;99380.13;;;8.06;73.71
70458;BME280;57919;56.194;95.716;2023-09-19T18:50:24;99363.19;;;7.93;73.92
70458;BME280;57919;56.194;95.716;2023-09-19T19:00:27;99370.56;;;7.78;73.87
70458;BME280;57919;56.194;95.716;2023-09-19T19:10:29;99375.06;;;7.54;74.33
70458;BME280;57919;56.194;95.716;2023-09-19T19:20:31;99377.09;;;7.26;74.32
70458;BME280;57919;56.194;95.716;2023-09-19T19:30:34;99387.31;;;7.21;74.58
70458;BME280;57919;56.194;95.716;2023-09-19T19:40:38;99386.47;;;7.08;74.45
70458;BME280;57919;56.194;95.716;2023-09-19T19:50:39;99369.38;;;6.96;74.75
70458;BME280;57919;56.194;95.716;2023-09-19T20:00:43;99364.84;;;6.97;75.01
70458;BME280;57919;56.194;95.716;2023-09-19T20:10:45;99376.59;;;6.96;75.10
70458;BME280;57919;56.194;95.716;2023-09-19T20:20:48;99371.63;;;6.90;75.27
70458;BME280;57919;56.194;95.716;2023-09-19T20:30:50;99366.38;;;6.88;75.10
70458;BME280;57919;56.194;95.716;2023-09-19T20:40:52;99370.13;;;6.73;74.97
70458;BME280;57919;56.194;95.716;2023-09-19T20:50:54;99373.78;;;6.46;75.76
70458;BME280;57919;56.194;95.716;2023-09-19T21:01:00;99380.19;;;6.31;76.76
70458;BME280;57919;56.194;95.716;2023-09-19T21:11:19;99373.91;;;6.05;77.22
70458;BME280;57919;56.194;95.716;2023-09-19T21:21:21;99376.81;;;6.02;77.46
70458;BME280;57919;56.194;95.716;2023-09-19T21:31:23;99369.63;;;6.15;76.89
70458;BME280;57919;56.194;95.716;2023-09-19T21:41:26;99381.03;;;6.19;76.77
70458;BME280;57919;56.194;95.716;2023-09-19T21:51:29;99376.38;;;6.08;76.44
70458;BME280;57919;56.194;95.716;2023-09-19T22:01:31;99376.69;;;6.04;77.02
70458;BME280;57919;56.194;95.716;2023-09-19T22:11:33;99381.66;;;6.10;76.32
70458;BME280;57919;56.194;95.716;2023-09-19T22:21:35;99390.91;;;6.19;76.06
70458;BME280;57919;56.194;95.716;2023-09-19T22:31:40;99396.69;;;6.12;76.94
70458;BME280;57919;56.194;95.716;2023-09-19T22:41:43;99394.31;;;5.81;77.17
70458;BME280;57919;56.194;95.716;2023-09-19T22:51:47;99399.31;;;5.73;77.13
70458;BME280;57919;56.194;95.716;2023-09-19T23:01:53;99403.81;;;5.72;77.25
70458;BME280;57919;56.194;95.716;2023-09-19T23:11:56;99405.84;;;5.69;77.63
70458;BME280;57919;56.194;95.716;2023-09-19T23:22:21;99408.09;;;5.48;78.12
70458;BME280;57919;56.194;95.716;2023-09-19T23:32:29;99401.97;;;5.46;78.51
70458;BME280;57919;56.194;95.716;2023-09-19T23:42:31;99409.66;;;5.24;80.03
70458;BME280;57919;56.194;95.716;2023-09-19T23:52:33;99409.38;;;5.14;79.99
